Time;durP1;ratioP1;P1;durP2;ratioP2;P2;SDS_P1;SDS_P2;PMS_P1;PMS_P2;Temp;Humidity;BMP_temperature;BMP_pressure;BME280_temperature;BME280_humidity;BME280_pressure;Samples;Min_cycle;Max_cycle;Signal;HPM_P1;HPM_P2
2023/09/22 00:00:47;;;;;;;9.50;2.10;;;;;;;18.55;76.61;98904.90;109821;1284;22218;-81
2023/09/22 00:03:35;;;;;;;10.90;2.40;;;;;;;18.55;76.90;98898.69;109833;1276;22248;-81
2023/09/22 00:06:06;;;;;;;11.10;2.50;;;;;;;18.55;76.84;98900.38;109802;1277;22227;-82
2023/09/22 00:08:36;;;;;;;14.30;2.10;;;;;;;18.55;76.93;98896.54;109804;1284;23019;-82
2023/09/22 00:11:10;;;;;;;12.10;3.00;;;;;;;18.55;76.89;98898.11;109815;1284;22313;-81
2023/09/22 00:13:41;;;;;;;11.60;2.50;;;;;;;18.55;77.13;98894.98;109816;1284;22169;-82
2023/09/22 00:16:14;;;;;;;11.50;2.50;;;;;;;18.54;77.09;98897.55;109829;1284;23265;-82
2023/09/22 00:18:44;;;;;;;9.50;2.50;;;;;;;18.53;77.10;98899.02;109793;1284;22205;-81
2023/09/22 00:21:16;;;;;;;12.30;2.60;;;;;;;18.52;77.16;98897.50;109843;1284;22840;-82
2023/09/22 00:23:47;;;;;;;10.80;2.70;;;;;;;18.52;77.24;98896.52;109817;1284;22153;-81
2023/09/22 00:26:17;;;;;;;14.10;3.10;;;;;;;18.52;77.25;98892.02;109810;1283;22255;-79
2023/09/22 00:28:49;;;;;;;12.50;2.40;;;;;;;18.52;77.22;98894.42;109822;1284;22164;-79
2023/09/22 00:31:20;;;;;;;10.50;2.50;;;;;;;18.51;77.19;98887.83;109832;1284;22222;-79
2023/09/22 00:33:51;;;;;;;13.10;3.00;;;;;;;18.48;77.25;98884.74;109832;1284;22225;-79
2023/09/22 00:36:25;;;;;;;11.30;2.60;;;;;;;18.45;77.44;98889.42;109834;1280;22178;-79
2023/09/22 00:38:56;;;;;;;10.40;2.80;;;;;;;18.42;77.58;98884.94;109850;1284;22237;-79
2023/09/22 00:41:27;;;;;;;11.20;2.40;;;;;;;18.38;77.69;98887.46;109788;1284;22223;-79
2023/09/22 00:43:58;;;;;;;15.50;3.60;;;;;;;18.36;77.65;98890.26;109833;1271;22147;-79
2023/09/22 00:46:29;;;;;;;12.20;2.50;;;;;;;18.37;77.64;98886.94;109887;1284;22208;-79
2023/09/22 00:49:00;;;;;;;10.50;2.60;;;;;;;18.36;77.63;98888.41;109971;1272;22142;-79
2023/09/22 00:51:31;;;;;;;13.70;3.10;;;;;;;18.35;77.68;98892.67;109928;1284;22156;-79
2023/09/22 00:54:02;;;;;;;13.60;3.50;;;;;;;18.32;77.54;98890.66;109831;1284;23002;-79
2023/09/22 00:56:33;;;;;;;14.50;3.70;;;;;;;18.31;77.74;98892.09;109802;1284;22148;-79
2023/09/22 00:59:05;;;;;;;10.80;3.00;;;;;;;18.30;77.75;98891.77;109815;1276;22894;-79
2023/09/22 01:01:36;;;;;;;10.90;3.10;;;;;;;18.29;77.75;98893.91;109820;1277;22201;-79
2023/09/22 01:04:07;;;;;;;13.90;3.10;;;;;;;18.28;77.71;98893.00;109801;1284;22152;-79
2023/09/22 01:06:38;;;;;;;11.90;3.00;;;;;;;18.28;77.73;98893.87;109815;1284;22338;-79
2023/09/22 01:09:09;;;;;;;11.30;3.40;;;;;;;18.27;77.69;98896.10;109794;1284;22223;-79
2023/09/22 01:11:40;;;;;;;15.30;3.60;;;;;;;18.23;77.71;98896.66;109816;1284;22154;-79
2023/09/22 01:14:11;;;;;;;13.60;4.00;;;;;;;18.21;77.72;98901.10;109825;1280;22197;-79
2023/09/22 01:16:42;;;;;;;13.70;3.10;;;;;;;18.19;77.76;98907.80;109832;1284;22346;-79
2023/09/22 01:19:16;;;;;;;11.20;2.80;;;;;;;18.16;77.70;98909.23;109812;1284;22171;-79
2023/09/22 01:21:48;;;;;;;11.30;3.90;;;;;;;18.15;77.69;98904.33;109797;1284;22288;-79
2023/09/22 01:24:19;;;;;;;9.40;3.00;;;;;;;18.14;77.75;98906.77;109836;1284;22196;-79
2023/09/22 01:26:50;;;;;;;11.00;3.40;;;;;;;18.11;77.73;98902.15;109781;1284;22176;-79
2023/09/22 01:29:21;;;;;;;11.50;3.80;;;;;;;18.09;77.91;98902.18;109831;1284;22859;-79
2023/09/22 01:31:52;;;;;;;13.30;2.90;;;;;;;18.06;77.87;98896.27;109806;1284;22180;-79
2023/09/22 01:34:23;;;;;;;15.50;2.90;;;;;;;18.03;77.90;98892.91;109798;1284;22110;-79
2023/09/22 01:36:54;;;;;;;11.10;3.30;;;;;;;18.01;77.89;98889.85;109806;1284;22965;-79
2023/09/22 01:39:25;;;;;;;14.70;3.50;;;;;;;17.99;78.02;98890.34;109819;1284;22160;-79
2023/09/22 01:41:57;;;;;;;15.30;4.40;;;;;;;17.95;78.15;98885.06;107326;1284;22533;-79
2023/09/22 01:44:30;;;;;;;12.60;3.40;;;;;;;17.92;78.27;98884.04;106832;1279;22572;-78
2023/09/22 01:47:01;;;;;;;13.70;4.20;;;;;;;17.88;78.42;98880.13;106956;1280;22545;-80
2023/09/22 01:49:33;;;;;;;14.10;4.20;;;;;;;17.83;78.54;98880.83;107971;1285;25328;-80
2023/09/22 01:52:04;;;;;;;15.10;4.40;;;;;;;17.79;78.66;98879.91;108007;1284;23232;-78
2023/09/22 01:54:36;;;;;;;13.00;3.10;;;;;;;17.77;78.94;98882.48;107149;1277;24218;-81
2023/09/22 01:57:07;;;;;;;18.70;3.50;;;;;;;17.74;78.96;98881.95;107752;1284;23220;-81
2023/09/22 01:59:38;;;;;;;14.30;3.30;;;;;;;17.72;79.10;98877.79;107705;1279;25340;-81
2023/09/22 02:02:09;;;;;;;8.00;2.60;;;;;;;17.70;79.12;98877.64;107688;1260;23177;-81
2023/09/22 02:04:39;;;;;;;11.20;3.10;;;;;;;17.69;79.16;98875.98;107622;1284;25399;-81
2023/09/22 02:07:10;;;;;;;14.80;3.10;;;;;;;17.67;79.23;98879.07;107721;1280;23171;-81
2023/09/22 02:09:41;;;;;;;14.10;2.70;;;;;;;17.65;79.26;98878.88;107800;1284;22507;-81
2023/09/22 02:12:12;;;;;;;12.70;3.60;;;;;;;17.61;79.64;98881.15;107729;1284;22568;-81
2023/09/22 02:14:43;;;;;;;14.40;2.90;;;;;;;17.58;79.68;98878.23;107778;1276;22591;-81
2023/09/22 02:17:14;;;;;;;12.70;2.60;;;;;;;17.55;79.87;98877.83;107909;1280;24228;-81
2023/09/22 02:19:45;;;;;;;10.40;3.20;;;;;;;17.50;80.18;98870.87;107837;1277;22560;-80
2023/09/22 02:22:16;;;;;;;11.30;2.90;;;;;;;17.48;80.25;98867.84;107899;1280;22572;-81
2023/09/22 02:24:46;;;;;;;10.60;3.00;;;;;;;17.47;80.36;98869.30;108034;1277;22554;-81
2023/09/22 02:27:17;;;;;;;15.40;3.10;;;;;;;17.46;80.46;98874.41;107842;1276;22594;-81
2023/09/22 02:29:48;;;;;;;13.50;3.10;;;;;;;17.45;80.61;98876.71;107831;1277;22549;-81
2023/09/22 02:32:19;;;;;;;13.80;3.80;;;;;;;17.41;80.61;98875.91;107783;1283;23010;-81
2023/09/22 02:34:50;;;;;;;11.00;3.70;;;;;;;17.41;80.66;98879.70;107881;1284;24204;-81
2023/09/22 02:37:21;;;;;;;16.70;4.30;;;;;;;17.41;80.65;98878.42;107723;1284;22712;-81
2023/09/22 02:39:52;;;;;;;11.40;3.70;;;;;;;17.41;80.81;98878.84;107665;1277;22486;-81
2023/09/22 02:42:23;;;;;;;20.30;3.40;;;;;;;17.40;80.86;98876.77;107584;1284;22533;-79
2023/09/22 02:44:54;;;;;;;10.70;2.60;;;;;;;17.39;80.88;98876.65;106883;1284;22548;-81
2023/09/22 02:47:28;;;;;;;10.90;3.10;;;;;;;17.37;80.95;98876.95;108734;1284;22565;-78
2023/09/22 02:49:59;;;;;;;12.40;3.60;;;;;;;17.35;80.85;98873.22;108329;1277;24186;-80
2023/09/22 02:52:30;;;;;;;12.90;3.40;;;;;;;17.33;80.96;98871.78;108985;1284;22567;-81
2023/09/22 02:55:01;;;;;;;10.00;3.00;;;;;;;17.32;81.01;98874.44;108985;1280;22503;-81
2023/09/22 02:57:34;;;;;;;14.50;3.60;;;;;;;17.29;81.22;98872.17;108900;1276;22879;-78
2023/09/22 03:00:11;;;;;;;16.10;4.30;;;;;;;17.27;81.37;98872.70;108205;1277;24242;-79
2023/09/22 03:02:42;;;;;;;13.90;3.70;;;;;;;17.25;81.45;98869.67;109876;1276;22372;-78
2023/09/22 03:05:16;;;;;;;10.50;3.50;;;;;;;17.19;81.65;98868.30;109901;1283;22203;-79
2023/09/22 03:07:47;;;;;;;13.40;3.60;;;;;;;17.17;81.82;98870.55;109152;1284;22606;-80
2023/09/22 03:10:19;;;;;;;11.10;3.00;;;;;;;17.14;81.85;98877.94;108894;1284;22580;-81
2023/09/22 03:12:52;;;;;;;12.20;3.30;;;;;;;17.14;82.01;98876.60;108724;1276;23415;-79
2023/09/22 03:15:23;;;;;;;11.20;3.10;;;;;;;17.12;82.07;98875.84;108214;1283;22841;-78
2023/09/22 03:17:56;;;;;;;14.20;3.10;;;;;;;17.10;82.15;98878.33;108300;1280;26555;-79
2023/09/22 03:20:27;;;;;;;12.60;3.90;;;;;;;17.10;82.34;98871.55;108182;1284;22566;-78
2023/09/22 03:22:58;;;;;;;10.90;3.30;;;;;;;17.09;82.29;98869.26;108300;1283;22657;-79
2023/09/22 03:25:29;;;;;;;12.20;3.70;;;;;;;17.08;82.44;98874.64;108259;1276;22588;-79
2023/09/22 03:28:00;;;;;;;16.60;4.70;;;;;;;17.07;82.50;98873.02;108154;1267;22602;-78
2023/09/22 03:30:30;;;;;;;13.10;3.50;;;;;;;17.06;82.55;98880.90;108167;1284;22565;-79
2023/09/22 03:33:01;;;;;;;12.80;3.50;;;;;;;17.04;82.67;98880.15;108290;1284;24204;-79
2023/09/22 03:35:32;;;;;;;12.50;3.70;;;;;;;17.02;82.79;98879.13;108273;1283;22562;-79
2023/09/22 03:38:04;;;;;;;11.70;4.10;;;;;;;17.01;83.00;98880.44;108206;1279;22923;-79
2023/09/22 03:40:40;;;;;;;13.00;4.20;;;;;;;17.00;83.00;98875.95;109861;1284;23014;-79
2023/09/22 03:43:11;;;;;;;16.50;4.50;;;;;;;16.99;83.19;98875.05;109927;1284;22960;-79
2023/09/22 03:45:43;;;;;;;19.20;4.00;;;;;;;16.98;83.19;98876.20;109909;1279;22377;-79
2023/09/22 03:48:13;;;;;;;13.90;4.10;;;;;;;16.96;83.35;98876.91;109897;1277;22399;-79
2023/09/22 03:50:44;;;;;;;15.40;4.50;;;;;;;16.95;83.32;98875.48;109913;1284;22385;-79
2023/09/22 03:53:15;;;;;;;16.00;3.90;;;;;;;16.95;83.30;98872.55;109904;1284;22195;-79
2023/09/22 03:55:46;;;;;;;15.30;4.50;;;;;;;16.95;83.39;98870.84;109807;1277;22260;-79
2023/09/22 03:58:17;;;;;;;11.30;3.60;;;;;;;16.94;83.45;98867.23;109856;1284;22206;-76
2023/09/22 04:00:49;;;;;;;11.90;3.80;;;;;;;16.93;83.53;98869.52;109819;1276;22176;-78
2023/09/22 04:03:20;;;;;;;15.40;4.00;;;;;;;16.92;83.70;98870.95;109888;1277;22154;-78
2023/09/22 04:05:53;;;;;;;20.30;4.20;;;;;;;16.89;83.84;98870.78;109889;1276;23226;-79
2023/09/22 04:08:24;;;;;;;16.00;4.20;;;;;;;16.87;83.98;98872.42;109860;1284;23179;-78
2023/09/22 04:10:58;;;;;;;10.00;2.90;;;;;;;16.85;84.07;98875.46;109887;1284;22183;-80
2023/09/22 04:13:29;;;;;;;11.40;3.40;;;;;;;16.83;84.22;98876.12;109883;1284;22165;-78
2023/09/22 04:16:04;;;;;;;14.40;3.80;;;;;;;16.82;84.38;98872.52;109873;1280;22331;-79
2023/09/22 04:18:35;;;;;;;16.50;3.50;;;;;;;16.82;84.56;98869.70;109766;1280;22352;-78
2023/09/22 04:21:07;;;;;;;18.80;3.70;;;;;;;16.82;84.59;98863.84;109795;1276;22351;-78
2023/09/22 04:23:44;;;;;;;12.10;4.00;;;;;;;16.82;84.62;98855.18;109811;1277;22129;-79
2023/09/22 04:26:16;;;;;;;14.60;3.40;;;;;;;16.81;84.60;98855.52;109783;1280;22450;-77
2023/09/22 04:28:47;;;;;;;9.20;3.00;;;;;;;16.82;85.00;98859.25;109803;1276;22174;-77
2023/09/22 04:31:18;;;;;;;15.00;3.20;;;;;;;16.82;85.11;98859.95;109790;1270;22234;-78
2023/09/22 04:33:48;;;;;;;12.70;3.30;;;;;;;16.83;85.10;98862.48;109756;1284;22192;-78
2023/09/22 04:36:21;;;;;;;14.40;3.40;;;;;;;16.86;85.17;98866.29;109759;1284;22157;-78
2023/09/22 04:38:53;;;;;;;14.20;3.20;;;;;;;16.89;85.31;98875.02;109774;1277;22203;-79
2023/09/22 04:41:27;;;;;;;13.60;3.20;;;;;;;16.90;85.54;98882.09;109791;1274;22186;-78
2023/09/22 04:43:58;;;;;;;13.20;3.50;;;;;;;16.92;85.60;98894.77;109087;1277;22559;-78
2023/09/22 04:46:30;;;;;;;12.50;3.20;;;;;;;16.94;85.50;98902.20;107275;1284;25303;-78
2023/09/22 04:49:01;;;;;;;11.20;3.10;;;;;;;16.97;85.34;98906.27;107330;1283;25400;-80
2023/09/22 04:51:32;;;;;;;12.00;2.80;;;;;;;17.00;85.40;98905.13;108229;1276;22633;-78
2023/09/22 04:54:03;;;;;;;15.10;3.30;;;;;;;17.02;85.44;98901.95;107736;1283;22542;-78
2023/09/22 04:56:34;;;;;;;14.20;3.10;;;;;;;17.04;85.54;98911.35;106826;1284;25290;-79
2023/09/22 04:59:06;;;;;;;16.00;4.10;;;;;;;17.07;85.68;98914.81;106849;1284;22537;-78
2023/09/22 05:01:37;;;;;;;15.10;3.30;;;;;;;17.07;85.71;98917.11;106983;1283;22573;-79
2023/09/22 05:04:08;;;;;;;12.50;3.50;;;;;;;17.09;85.69;98919.23;106969;1284;22781;-78
2023/09/22 05:06:40;;;;;;;13.50;3.60;;;;;;;17.10;85.83;98920.73;107203;1284;22832;-79
2023/09/22 05:09:10;;;;;;;13.60;3.00;;;;;;;17.10;85.85;98921.08;106985;1284;22545;-79
2023/09/22 05:11:41;;;;;;;14.00;3.20;;;;;;;17.11;86.12;98924.39;107157;1284;22545;-79
2023/09/22 05:14:12;;;;;;;12.70;2.80;;;;;;;17.13;86.14;98938.44;107043;1277;22612;-79
2023/09/22 05:16:44;;;;;;;12.80;3.00;;;;;;;17.15;86.17;98948.75;106951;1277;25315;-78
2023/09/22 05:19:14;;;;;;;14.10;3.40;;;;;;;17.16;86.35;98962.89;106746;1284;22465;-79
2023/09/22 05:21:45;;;;;;;11.20;2.80;;;;;;;17.19;86.25;98982.27;106754;1284;26962;-78
2023/09/22 05:24:16;;;;;;;11.20;3.10;;;;;;;17.22;86.66;98990.33;106735;1284;24230;-78
2023/09/22 05:26:47;;;;;;;16.10;3.10;;;;;;;17.25;86.60;98985.13;106659;1284;22533;-79
2023/09/22 05:29:18;;;;;;;15.00;3.10;;;;;;;17.29;86.43;98984.13;106687;1284;22530;-78
2023/09/22 05:31:49;;;;;;;10.20;3.00;;;;;;;17.33;86.49;98972.69;106752;1284;23228;-78
2023/09/22 05:34:20;;;;;;;14.70;4.00;;;;;;;17.37;86.63;98966.77;106798;1284;22625;-78
2023/09/22 05:36:51;;;;;;;11.80;3.40;;;;;;;17.41;86.72;98958.58;106825;1284;22530;-78
2023/09/22 05:39:21;;;;;;;19.20;3.50;;;;;;;17.45;86.59;98960.10;106923;1284;22600;-78
2023/09/22 05:41:52;;;;;;;14.90;2.80;;;;;;;17.49;86.92;98977.88;106836;1284;22579;-78
2023/09/22 05:44:28;;;;;;;14.20;3.10;;;;;;;17.52;86.68;98969.27;106917;1280;24417;-78
2023/09/22 05:47:00;;;;;;;11.90;2.80;;;;;;;17.57;86.75;98975.66;106823;1284;27434;-79
2023/09/22 05:49:31;;;;;;;14.30;3.30;;;;;;;17.61;86.95;98990.57;106833;1284;25451;-78
2023/09/22 05:52:03;;;;;;;11.50;3.00;;;;;;;17.63;86.73;98995.70;106835;1277;22533;-78
2023/09/22 05:54:37;;;;;;;17.20;3.40;;;;;;;17.65;86.65;98989.73;109806;1284;22617;-78
2023/09/22 05:57:08;;;;;;;14.50;3.30;;;;;;;17.68;86.62;98987.34;109800;1284;22179;-79
2023/09/22 05:59:39;;;;;;;12.80;3.00;;;;;;;17.70;86.77;98984.63;109809;1284;22296;-78
2023/09/22 06:02:10;;;;;;;16.20;3.80;;;;;;;17.72;86.94;98986.67;109811;1280;22173;-79
2023/09/22 06:04:41;;;;;;;13.90;3.60;;;;;;;17.76;86.71;98994.74;109803;1277;23129;-79
2023/09/22 06:07:14;;;;;;;17.70;3.20;;;;;;;17.79;86.83;98991.10;109794;1284;23260;-78
2023/09/22 06:09:45;;;;;;;13.40;2.10;;;;;;;17.82;86.87;98995.85;109671;1284;22199;-79
2023/09/22 06:12:16;;;;;;;12.60;2.20;;;;;;;17.83;86.74;98999.55;109763;1277;22884;-79
2023/09/22 06:14:47;;;;;;;12.20;2.80;;;;;;;17.87;86.93;99001.55;109807;1284;23120;-79
2023/09/22 06:17:18;;;;;;;9.80;2.60;;;;;;;17.89;86.81;99009.81;109772;1284;22193;-79
2023/09/22 06:19:48;;;;;;;14.70;2.40;;;;;;;17.91;86.72;99009.89;109777;1284;22206;-78
2023/09/22 06:22:19;;;;;;;15.00;2.90;;;;;;;17.93;86.80;99006.74;109827;1284;22168;-79
2023/09/22 06:24:52;;;;;;;11.50;3.20;;;;;;;17.97;86.61;99008.66;109799;1284;23086;-78
2023/09/22 06:27:23;;;;;;;11.10;2.60;;;;;;;18.00;86.86;99009.32;109779;1283;22247;-79
2023/09/22 06:29:54;;;;;;;17.30;2.50;;;;;;;18.03;86.72;99020.08;109807;1277;23267;-79
2023/09/22 06:32:25;;;;;;;14.70;2.60;;;;;;;18.06;86.77;99025.35;109809;1284;22986;-79
2023/09/22 06:34:57;;;;;;;18.60;3.00;;;;;;;18.11;86.88;99022.42;109804;1283;22168;-79
2023/09/22 06:37:27;;;;;;;12.80;2.40;;;;;;;18.17;87.09;99024.84;109784;1284;22220;-79
2023/09/22 06:39:58;;;;;;;12.20;2.30;;;;;;;18.24;86.97;99021.66;109808;1284;22225;-79
2023/09/22 06:42:29;;;;;;;11.80;2.10;;;;;;;18.29;86.85;99025.45;109804;1284;22466;-79
2023/09/22 06:45:00;;;;;;;14.50;2.50;;;;;;;18.34;86.88;99029.19;109807;1283;22226;-79
2023/09/22 06:47:33;;;;;;;14.70;2.10;;;;;;;18.39;86.76;99033.75;109810;1284;22179;-79
2023/09/22 06:50:06;;;;;;;15.90;2.20;;;;;;;18.43;86.62;99038.72;109784;1283;23159;-79
2023/09/22 06:52:37;;;;;;;12.90;1.90;;;;;;;18.48;86.62;99041.69;109792;1276;22325;-79
2023/09/22 06:55:09;;;;;;;14.80;2.00;;;;;;;18.54;86.67;99040.56;109809;1280;23446;-80
2023/09/22 06:57:41;;;;;;;10.80;2.30;;;;;;;18.61;86.61;99048.70;109798;1277;22180;-79
2023/09/22 07:00:18;;;;;;;7.90;2.00;;;;;;;18.68;86.71;99053.46;109776;1284;23097;-79
2023/09/22 07:02:49;;;;;;;11.70;2.10;;;;;;;18.76;86.95;99058.30;109807;1283;22206;-79
2023/09/22 07:05:20;;;;;;;9.90;1.90;;;;;;;18.83;86.67;99057.13;109775;1283;22216;-79
2023/09/22 07:07:52;;;;;;;10.60;1.60;;;;;;;18.89;86.43;99062.73;109809;1283;22211;-79
2023/09/22 07:10:23;;;;;;;10.80;2.10;;;;;;;18.95;86.32;99061.67;109816;1273;22191;-79
2023/09/22 07:12:54;;;;;;;14.90;2.20;;;;;;;18.99;86.13;99063.95;109551;1284;23269;-79
2023/09/22 07:15:25;;;;;;;12.60;1.70;;;;;;;19.04;85.92;99063.94;106800;1284;22552;-79
2023/09/22 07:17:55;;;;;;;9.50;1.30;;;;;;;19.07;86.02;99055.17;106823;1283;23249;-78
2023/09/22 07:20:26;;;;;;;7.80;1.60;;;;;;;19.11;85.81;99050.13;106874;1284;25352;-79
2023/09/22 07:22:57;;;;;;;9.70;1.90;;;;;;;19.13;85.89;99059.30;106860;1277;24802;-78
2023/09/22 07:25:30;;;;;;;9.80;1.50;;;;;;;19.17;85.89;99072.98;106857;1280;25362;-78
2023/09/22 07:28:01;;;;;;;14.10;1.60;;;;;;;19.20;85.68;99074.00;106875;1277;22556;-79
2023/09/22 07:30:34;;;;;;;9.70;1.70;;;;;;;19.24;85.75;99061.62;106848;1277;27457;-79
2023/09/22 07:33:05;;;;;;;9.80;1.70;;;;;;;19.29;85.91;99062.79;106756;1277;22604;-79
2023/09/22 07:35:36;;;;;;;11.30;1.60;;;;;;;19.37;85.79;99070.02;106688;1276;22536;-80
2023/09/22 07:38:07;;;;;;;8.20;1.80;;;;;;;19.45;85.58;99067.88;106708;1280;22560;-79
2023/09/22 07:40:38;;;;;;;14.40;2.10;;;;;;;19.54;85.71;99068.33;106695;1280;22543;-79
2023/09/22 07:43:09;;;;;;;9.70;1.40;;;;;;;19.62;85.38;99071.04;106663;1276;22592;-79
2023/09/22 07:45:40;;;;;;;10.20;2.10;;;;;;;19.70;85.21;99072.34;106891;1276;25228;-81
2023/09/22 07:48:11;;;;;;;7.10;1.70;;;;;;;19.77;84.93;99073.96;107727;1276;22606;-80
2023/09/22 07:50:45;;;;;;;8.40;1.60;;;;;;;19.83;84.77;99080.23;106927;1277;22682;-79
2023/09/22 07:53:16;;;;;;;10.80;1.50;;;;;;;19.89;84.44;99080.05;107690;1277;23440;-79
2023/09/22 07:55:47;;;;;;;13.20;2.10;;;;;;;19.93;84.33;99065.95;107090;1283;22621;-79
2023/09/22 07:58:18;;;;;;;7.40;1.80;;;;;;;19.96;83.83;99063.48;107014;1283;22566;-79
2023/09/22 08:00:49;;;;;;;12.20;1.80;;;;;;;19.98;83.92;99061.02;106956;1277;22643;-79
2023/09/22 08:03:21;;;;;;;10.40;1.40;;;;;;;20.03;83.97;99057.08;106869;1283;22570;-79
2023/09/22 08:05:52;;;;;;;12.80;1.50;;;;;;;20.08;83.71;99045.49;107579;1276;22611;-79
2023/09/22 08:08:24;;;;;;;9.40;1.80;;;;;;;20.13;83.45;99046.25;107557;1280;22533;-80
2023/09/22 08:10:55;;;;;;;7.90;1.40;;;;;;;20.21;83.11;99052.73;106774;1284;23579;-79
2023/09/22 08:13:26;;;;;;;11.10;2.20;;;;;;;20.27;82.63;99050.75;107438;1277;25355;-80
2023/09/22 08:15:57;;;;;;;11.00;1.80;;;;;;;20.32;82.45;99050.62;107526;1283;24235;-79
2023/09/22 08:18:29;;;;;;;9.80;1.90;;;;;;;20.37;82.25;99055.20;107587;1283;22738;-80
2023/09/22 08:20:59;;;;;;;8.30;1.40;;;;;;;20.43;82.05;99065.48;107780;1283;23286;-80
2023/09/22 08:23:30;;;;;;;6.50;1.10;;;;;;;20.50;82.06;99066.92;106946;1283;25280;-77
2023/09/22 08:26:05;;;;;;;14.50;1.70;;;;;;;20.58;81.83;99062.41;106979;1280;24731;-78
2023/09/22 08:28:37;;;;;;;7.80;1.60;;;;;;;20.64;81.34;99054.16;106866;1276;22533;-79
2023/09/22 08:31:08;;;;;;;12.20;2.10;;;;;;;20.68;80.93;99061.46;106919;1283;22643;-79
2023/09/22 08:33:39;;;;;;;7.80;1.50;;;;;;;20.74;80.87;99073.14;106994;1283;24286;-79
2023/09/22 08:36:11;;;;;;;9.70;1.60;;;;;;;20.82;81.08;99060.23;106982;1283;22592;-79
2023/09/22 08:38:42;;;;;;;7.70;1.80;;;;;;;20.88;80.49;99050.73;106930;1283;23444;-78
2023/09/22 08:41:12;;;;;;;11.70;1.30;;;;;;;20.94;80.09;99057.34;106856;1283;23169;-77
2023/09/22 08:43:45;;;;;;;12.00;1.70;;;;;;;20.98;79.83;99062.91;106843;1271;24369;-77
2023/09/22 08:46:18;;;;;;;7.40;1.30;;;;;;;21.03;79.62;99071.15;106843;1283;22611;-79
2023/09/22 08:48:51;;;;;;;6.30;1.10;;;;;;;21.09;79.01;99077.80;106883;1283;22539;-79
2023/09/22 08:51:22;;;;;;;6.40;1.50;;;;;;;21.14;78.55;99070.49;107034;1278;22600;-79
2023/09/22 08:53:54;;;;;;;10.20;1.50;;;;;;;21.19;78.82;99064.32;107521;1283;25543;-79
2023/09/22 08:56:27;;;;;;;9.00;1.50;;;;;;;21.26;78.38;99063.02;108396;1283;22526;-79
2023/09/22 08:58:58;;;;;;;10.30;1.70;;;;;;;21.32;78.18;99063.70;108299;1283;22582;-79
2023/09/22 09:01:28;;;;;;;7.10;1.30;;;;;;;21.38;77.60;99070.88;107440;1283;22569;-79
2023/09/22 09:04:01;;;;;;;12.80;1.60;;;;;;;21.43;77.08;99084.52;107053;1276;22958;-79
2023/09/22 09:06:46;;;;;;;10.50;1.00;;;;;;;21.50;76.54;99089.33;107052;1283;22763;-79
2023/09/22 09:09:17;;;;;;;8.10;1.50;;;;;;;21.56;76.09;99094.38;107080;1283;22576;-79
2023/09/22 09:12:02;;;;;;;11.60;1.30;;;;;;;21.60;76.17;99099.02;106904;1283;22585;-79
2023/09/22 09:14:33;;;;;;;6.80;1.10;;;;;;;21.65;75.36;99092.61;109820;1283;22864;-79
2023/09/22 09:17:17;;;;;;;5.10;1.00;;;;;;;21.68;74.54;99083.52;109794;1283;22411;-79
2023/09/22 09:19:53;;;;;;;7.70;1.10;;;;;;;21.71;73.75;99091.39;109822;1283;22248;-79
2023/09/22 09:22:32;;;;;;;11.20;1.20;;;;;;;21.73;73.64;99101.66;109817;1283;22187;-80
2023/09/22 09:25:06;;;;;;;8.20;1.00;;;;;;;21.77;73.78;99101.27;109801;1283;22179;-79
2023/09/22 09:27:37;;;;;;;5.90;1.20;;;;;;;21.82;73.40;99113.52;109807;1283;22611;-80
2023/09/22 09:30:11;;;;;;;7.50;0.80;;;;;;;21.84;73.17;99118.80;109832;1283;22265;-79
2023/09/22 09:32:43;;;;;;;6.50;1.10;;;;;;;21.85;72.69;99114.71;109751;1283;24282;-79
2023/09/22 09:35:29;;;;;;;8.60;0.90;;;;;;;21.84;72.62;99117.67;109803;1283;22165;-80
2023/09/22 09:38:04;;;;;;;8.10;0.70;;;;;;;21.83;72.13;99127.63;109784;1273;22121;-79
2023/09/22 09:40:37;;;;;;;6.10;1.20;;;;;;;21.80;72.04;99130.65;109790;1283;22131;-79
2023/09/22 09:43:12;;;;;;;2.90;0.70;;;;;;;21.75;72.03;99124.98;109802;1279;22136;-80
2023/09/22 09:45:47;;;;;;;4.80;0.90;;;;;;;21.74;72.00;99124.38;109789;1276;22378;-80
2023/09/22 09:48:19;;;;;;;4.70;1.00;;;;;;;21.73;71.72;99132.65;109815;1273;22343;-80
2023/09/22 09:50:52;;;;;;;8.70;1.20;;;;;;;21.73;71.76;99136.75;109771;1284;22178;-80
2023/09/22 09:53:36;;;;;;;6.00;1.20;;;;;;;21.76;71.80;99130.58;109838;1283;22200;-80
2023/09/22 09:56:08;;;;;;;8.10;0.90;;;;;;;21.83;71.95;99128.20;109741;1284;22205;-80
2023/09/22 09:58:42;;;;;;;3.70;0.90;;;;;;;21.91;71.77;99125.91;109697;1284;22965;-80
2023/09/22 10:01:14;;;;;;;6.00;0.90;;;;;;;21.98;71.56;99127.45;109772;1284;22156;-80
2023/09/22 10:03:46;;;;;;;9.10;1.10;;;;;;;22.04;71.38;99125.30;109795;1280;22162;-79
2023/09/22 10:06:19;;;;;;;4.80;1.00;;;;;;;22.08;71.14;99127.22;109731;1283;22348;-79
2023/09/22 10:08:49;;;;;;;7.40;0.90;;;;;;;22.12;71.18;99124.50;109593;1283;202646;-79
2023/09/22 10:11:21;;;;;;;6.00;0.90;;;;;;;22.12;70.92;99121.98;109822;1284;22313;-79
2023/09/22 10:13:52;;;;;;;3.50;0.80;;;;;;;22.11;70.25;99118.73;109817;1283;22657;-80
2023/09/22 10:16:31;;;;;;;4.30;0.80;;;;;;;22.07;69.81;99121.86;109763;1284;22654;-80
2023/09/22 10:19:02;;;;;;;7.00;0.90;;;;;;;22.06;69.61;99127.58;109792;1284;22181;-79
2023/09/22 10:21:45;;;;;;;9.00;1.40;;;;;;;22.06;69.63;99122.85;109781;1280;22408;-79
2023/09/22 10:24:27;;;;;;;6.20;1.10;;;;;;;22.10;69.72;99123.35;109815;1284;22212;-79
2023/09/22 10:27:15;;;;;;;6.40;0.90;;;;;;;22.11;69.16;99122.91;109834;1284;22321;-79
2023/09/22 10:29:53;;;;;;;4.90;1.40;;;;;;;22.14;69.35;99119.73;109792;1278;22366;-79
2023/09/22 10:32:30;;;;;;;5.20;0.90;;;;;;;22.17;68.92;99125.91;109791;1284;22155;-79
2023/09/22 10:35:05;;;;;;;5.90;0.90;;;;;;;22.18;69.10;99133.14;109804;1283;22218;-80
2023/09/22 10:37:37;;;;;;;5.60;0.80;;;;;;;22.20;69.23;99132.29;109790;1284;22189;-79
2023/09/22 10:40:11;;;;;;;7.90;1.10;;;;;;;22.23;68.79;99130.69;109834;1284;22214;-79
2023/09/22 10:42:45;;;;;;;6.20;1.70;;;;;;;22.22;68.52;99130.63;109812;1284;22309;-79
2023/09/22 10:45:19;;;;;;;5.40;0.90;;;;;;;22.26;68.68;99131.52;109825;1284;22231;-80
2023/09/22 10:47:51;;;;;;;6.20;0.70;;;;;;;22.32;68.25;99131.15;109805;1284;22363;-79
2023/09/22 10:50:24;;;;;;;6.80;0.80;;;;;;;22.35;67.96;99135.09;109808;1284;22364;-79
2023/09/22 10:52:57;;;;;;;4.50;0.80;;;;;;;22.37;68.09;99139.53;109800;1284;22779;-79
2023/09/22 10:55:31;;;;;;;3.00;0.90;;;;;;;22.42;68.10;99142.50;109784;1284;22132;-79
2023/09/22 10:58:04;;;;;;;8.10;0.70;;;;;;;22.47;67.68;99140.94;109788;1284;22833;-79
2023/09/22 11:00:38;;;;;;;4.70;0.90;;;;;;;22.52;67.65;99148.31;109794;1284;22174;-79
2023/09/22 11:03:12;;;;;;;5.60;1.00;;;;;;;22.58;66.95;99158.30;109809;1284;22944;-80
2023/09/22 11:05:46;;;;;;;3.20;0.60;;;;;;;22.56;66.42;99170.98;109787;1280;22319;-80
2023/09/22 11:08:18;;;;;;;4.70;0.80;;;;;;;22.54;66.00;99172.36;109825;1283;22181;-80
2023/09/22 11:10:52;;;;;;;2.70;0.50;;;;;;;22.52;66.12;99169.95;109836;1283;22218;-80
2023/09/22 11:13:23;;;;;;;2.20;0.60;;;;;;;22.53;66.11;99173.40;109802;1284;22152;-80
2023/09/22 11:15:56;;;;;;;5.40;0.60;;;;;;;22.52;66.09;99172.65;109809;1283;22261;-80
2023/09/22 11:18:29;;;;;;;5.60;0.50;;;;;;;22.51;65.77;99175.09;109812;1284;22922;-80
2023/09/22 11:21:02;;;;;;;2.90;0.60;;;;;;;22.51;66.01;99166.53;109813;1283;22277;-79
2023/09/22 11:23:35;;;;;;;3.60;0.50;;;;;;;22.50;65.65;99162.89;109819;1284;22160;-80
2023/09/22 11:26:09;;;;;;;4.60;0.50;;;;;;;22.47;65.52;99164.13;109796;1280;22911;-80
2023/09/22 11:28:43;;;;;;;7.10;0.80;;;;;;;22.48;65.31;99168.71;109794;1283;22146;-79
2023/09/22 11:31:15;;;;;;;7.80;1.60;;;;;;;22.47;65.19;99168.54;109707;1285;22339;-79
2023/09/22 11:34:01;;;;;;;4.40;0.50;;;;;;;22.46;65.15;99171.14;109826;1284;22352;-80
2023/09/22 11:36:48;;;;;;;4.90;0.70;;;;;;;22.40;64.79;99168.80;109787;1279;22145;-80
2023/09/22 11:39:29;;;;;;;3.20;0.70;;;;;;;22.42;65.21;99163.08;109808;1283;22348;-80
2023/09/22 11:42:01;;;;;;;8.50;1.00;;;;;;;22.40;65.03;99165.40;109804;1277;22215;-80